createdAt,value
2023-04-10T00:01:44.105Z,12.90
2023-04-10T00:04:14.599Z,12.27
2023-04-10T00:06:44.207Z,12.97
2023-04-10T00:09:13.421Z,13.00
2023-04-10T00:11:44.122Z,12.80
2023-04-10T00:14:13.720Z,12.77
2023-04-10T00:16:42.887Z,13.13
2023-04-10T00:19:12.974Z,14.00
2023-04-10T00:21:42.148Z,12.97
2023-04-10T00:24:11.520Z,14.17
2023-04-10T00:26:40.770Z,13.83
2023-04-10T00:29:11.753Z,13.00
2023-04-10T00:31:41.053Z,13.63
2023-04-10T00:34:10.664Z,14.30
2023-04-10T00:36:39.910Z,14.20
2023-04-10T00:39:10.089Z,14.97
2023-04-10T00:41:39.291Z,15.40
2023-04-10T00:44:08.686Z,15.00
2023-04-10T00:46:41.739Z,15.33
2023-04-10T00:49:12.120Z,16.27
2023-04-10T00:51:42.228Z,15.77
2023-04-10T00:54:12.339Z,16.37
2023-04-10T00:56:42.052Z,16.57
2023-04-10T00:59:11.605Z,17.17
2023-04-10T01:01:42.326Z,18.30
2023-04-10T01:04:13.373Z,18.53
2023-04-10T01:06:54.963Z,18.90
2023-04-10T01:09:35.854Z,19.60
2023-04-10T01:12:20.975Z,17.50
2023-04-10T01:14:59.080Z,17.83
2023-04-10T01:17:37.207Z,17.73
2023-04-10T01:20:10.912Z,17.03
2023-04-10T01:23:00.042Z,17.07
2023-04-10T01:25:45.157Z,16.97
2023-04-10T01:28:43.424Z,16.17
2023-04-10T01:31:18.845Z,14.97
2023-04-10T01:33:53.248Z,15.03
2023-04-10T01:36:28.358Z,15.27
2023-04-10T01:39:00.052Z,15.33
2023-04-10T01:41:30.444Z,14.97
2023-04-10T01:44:04.138Z,15.53
2023-04-10T01:46:34.225Z,15.20
2023-04-10T01:49:04.681Z,14.60
2023-04-10T01:51:35.964Z,14.57
2023-04-10T01:54:11.916Z,15.23
2023-04-10T01:56:42.290Z,14.17
2023-04-10T01:59:14.713Z,15.03
2023-04-10T02:01:44.085Z,15.10
2023-04-10T02:04:14.632Z,14.93
2023-04-10T02:06:52.144Z,13.93
2023-04-10T02:09:27.586Z,14.93
2023-04-10T02:12:00.488Z,14.70
2023-04-10T02:14:34.203Z,14.00
2023-04-10T02:17:04.298Z,15.50
2023-04-10T02:19:34.764Z,14.47
2023-04-10T02:22:06.369Z,14.53
2023-04-10T02:24:37.178Z,14.57
2023-04-10T02:27:06.774Z,14.43
2023-04-10T02:29:37.484Z,14.23
2023-04-10T02:32:09.082Z,14.63
2023-04-10T02:34:38.272Z,14.50
2023-04-10T02:37:08.121Z,14.37
2023-04-10T02:39:37.565Z,14.20
2023-04-10T02:42:07.018Z,13.40
2023-04-10T02:44:39.696Z,14.20
2023-04-10T02:47:09.169Z,14.20
2023-04-10T02:49:40.214Z,13.60
2023-04-10T02:52:15.096Z,14.33
2023-04-10T02:54:44.368Z,13.40
2023-04-10T02:57:13.664Z,14.37
2023-04-10T02:59:44.854Z,14.97
2023-04-10T03:02:14.507Z,15.07
2023-04-10T03:04:44.223Z,14.57
2023-04-10T03:07:14.131Z,13.97
2023-04-10T03:09:43.469Z,14.20
2023-04-10T03:12:12.714Z,14.33
2023-04-10T03:14:41.851Z,14.40
2023-04-10T03:17:12.434Z,14.17
2023-04-10T03:19:41.810Z,13.97
2023-04-10T03:22:11.775Z,14.00
2023-04-10T03:24:42.674Z,13.73
2023-04-10T03:27:12.026Z,13.70
2023-04-10T03:29:41.339Z,12.77
2023-04-10T03:32:12.204Z,14.20
2023-04-10T03:34:41.525Z,12.93
2023-04-10T03:37:10.740Z,14.17
2023-04-10T03:39:40.399Z,14.33
2023-04-10T03:42:09.814Z,14.87
2023-04-10T03:44:39.634Z,15.43
2023-04-10T03:47:12.442Z,15.10
2023-04-10T03:49:43.883Z,14.27
2023-04-10T03:52:13.138Z,15.63
2023-04-10T03:54:42.816Z,14.47
2023-04-10T03:57:23.300Z,14.03
2023-04-10T03:59:53.316Z,13.27
2023-04-10T04:02:24.251Z,14.10
2023-04-10T04:04:56.390Z,14.40
2023-04-10T04:07:54.552Z,14.07
2023-04-10T04:10:37.987Z,14.67
2023-04-10T04:13:24.376Z,14.57
2023-04-10T04:16:08.578Z,14.97
2023-04-10T04:18:49.305Z,14.80
2023-04-10T04:21:40.927Z,15.23
2023-04-10T04:24:22.134Z,14.57
2023-04-10T04:27:23.515Z,15.57
2023-04-10T04:30:18.700Z,14.57
2023-04-10T04:33:16.854Z,13.47
2023-04-10T04:36:02.594Z,13.73
2023-04-10T04:38:49.405Z,13.30
2023-04-10T04:41:32.705Z,11.93
2023-04-10T04:44:03.421Z,11.50
2023-04-10T04:46:52.877Z,12.10
2023-04-10T04:49:30.840Z,11.87
2023-04-10T04:52:30.784Z,11.00
2023-04-10T04:55:07.766Z,9.77
2023-04-10T04:57:46.268Z,9.30
2023-04-10T05:00:29.130Z,8.53
2023-04-10T05:03:07.242Z,7.73
2023-04-10T05:05:54.867Z,8.40
2023-04-10T05:08:26.054Z,7.90
2023-04-10T05:11:18.291Z,8.15
2023-04-10T05:14:19.810Z,7.40
2023-04-10T05:17:03.956Z,8.27
2023-04-10T05:19:59.895Z,8.48
2023-04-10T05:22:59.402Z,7.75
2023-04-10T05:25:50.176Z,7.60
2023-04-10T05:28:42.363Z,7.38
2023-04-10T05:31:30.069Z,7.95
2023-04-10T05:34:10.904Z,8.00
2023-04-10T05:37:13.172Z,8.35
2023-04-10T05:40:02.856Z,8.57
2023-04-10T05:42:54.916Z,8.20
2023-04-10T05:45:41.173Z,7.70
2023-04-10T05:48:10.581Z,8.15
2023-04-10T05:50:48.740Z,8.25
2023-04-10T05:53:47.552Z,8.52
2023-04-10T05:56:30.131Z,8.93
2023-04-10T05:59:19.240Z,8.60
2023-04-10T06:02:01.415Z,8.60
2023-04-10T06:04:31.360Z,8.75
2023-04-10T06:07:03.019Z,7.70
2023-04-10T06:09:34.615Z,7.63
2023-04-10T06:12:03.874Z,8.27
2023-04-10T06:14:34.590Z,8.45
2023-04-10T06:17:04.128Z,9.00
2023-04-10T06:19:33.580Z,8.85
2023-04-10T06:22:02.778Z,8.73
2023-04-10T06:24:32.856Z,8.75
2023-04-10T06:27:02.048Z,8.23
2023-04-10T06:29:31.798Z,7.60
2023-04-10T06:32:02.601Z,8.63
2023-04-10T06:34:37.023Z,8.02
2023-04-10T06:37:09.082Z,7.90
2023-04-10T06:39:40.684Z,7.95
2023-04-10T06:42:10.787Z,8.38
2023-04-10T06:44:47.857Z,7.97
2023-04-10T06:47:18.594Z,8.20
2023-04-10T06:49:47.902Z,8.15
2023-04-10T06:52:17.438Z,8.32
2023-04-10T06:54:46.686Z,8.02
2023-04-10T06:57:16.300Z,8.15
2023-04-10T06:59:45.701Z,7.53
2023-04-10T07:02:15.073Z,8.35
2023-04-10T07:04:46.202Z,8.15
2023-04-10T07:07:16.168Z,7.70
2023-04-10T07:09:45.283Z,8.32
2023-04-10T07:12:14.484Z,8.40
2023-04-10T07:14:43.809Z,8.52
2023-04-10T07:17:13.089Z,9.63
2023-04-10T07:19:42.523Z,9.63
2023-04-10T07:22:13.396Z,8.95
2023-04-10T07:24:42.620Z,10.00
2023-04-10T07:27:12.603Z,10.20
2023-04-10T07:29:41.723Z,9.93
2023-04-10T07:32:11.172Z,10.53
2023-04-10T07:34:42.316Z,10.60
2023-04-10T07:37:13.013Z,10.97
2023-04-10T07:39:42.291Z,10.50
2023-04-10T07:42:12.311Z,10.63
2023-04-10T07:44:41.573Z,10.47
2023-04-10T07:47:11.668Z,10.00
2023-04-10T07:49:41.573Z,9.93
2023-04-10T07:52:10.783Z,9.80
2023-04-10T07:54:41.481Z,9.77
2023-04-10T07:57:10.616Z,8.80
2023-04-10T07:59:39.734Z,9.27
2023-04-10T08:02:09.304Z,9.65
2023-04-10T08:04:38.806Z,8.63
2023-04-10T08:07:08.120Z,8.07
2023-04-10T08:09:37.344Z,6.43
2023-04-10T08:12:08.118Z,6.35
2023-04-10T08:14:37.484Z,6.68
2023-04-10T08:17:06.967Z,6.72
2023-04-10T08:19:36.409Z,6.38
2023-04-10T08:22:05.640Z,6.35
2023-04-10T08:24:34.872Z,6.88
2023-04-10T08:27:04.048Z,7.07
2023-04-10T08:29:34.871Z,7.53
2023-04-10T08:32:04.415Z,7.10
2023-04-10T08:34:33.581Z,6.90
2023-04-10T08:37:06.499Z,6.07
2023-04-10T08:39:37.160Z,6.10
2023-04-10T08:42:08.329Z,5.80
2023-04-10T08:44:40.045Z,5.55
2023-04-10T08:47:10.924Z,5.10
2023-04-10T08:49:48.122Z,5.63
2023-04-10T08:52:22.777Z,5.35
2023-04-10T08:54:56.441Z,5.72
2023-04-10T08:57:27.187Z,4.65
2023-04-10T09:00:04.077Z,5.38
2023-04-10T09:02:42.256Z,5.22
2023-04-10T09:05:14.367Z,5.20
2023-04-10T09:07:43.720Z,5.18
2023-04-10T09:10:13.091Z,5.00
2023-04-10T09:12:46.820Z,4.80
2023-04-10T09:15:17.880Z,4.03
2023-04-10T09:18:00.993Z,4.43
2023-04-10T09:20:32.439Z,4.22
2023-04-10T09:23:02.639Z,4.25
2023-04-10T09:25:36.691Z,4.28
2023-04-10T09:28:07.131Z,5.32
2023-04-10T09:30:40.288Z,5.10
2023-04-10T09:33:24.318Z,4.50
2023-04-10T09:35:53.554Z,4.43
2023-04-10T09:38:23.648Z,4.45
2023-04-10T09:40:54.769Z,4.20
2023-04-10T09:43:26.065Z,4.68
2023-04-10T09:45:59.005Z,4.18
2023-04-10T09:48:28.486Z,4.78
2023-04-10T09:50:58.124Z,3.97
2023-04-10T09:53:27.859Z,3.35
2023-04-10T09:55:58.409Z,4.10
2023-04-10T09:58:28.504Z,3.90
2023-04-10T10:00:59.319Z,3.88
2023-04-10T10:03:29.567Z,3.45
2023-04-10T10:05:59.084Z,4.05
2023-04-10T10:08:28.602Z,4.18
2023-04-10T10:11:00.706Z,4.22
2023-04-10T10:13:35.643Z,3.88
2023-04-10T10:16:10.894Z,4.05
2023-04-10T10:18:46.303Z,3.65
2023-04-10T10:21:16.530Z,3.60
2023-04-10T10:23:46.843Z,3.20
2023-04-10T10:26:17.510Z,3.58
2023-04-10T10:28:48.959Z,3.97
2023-04-10T10:31:21.376Z,3.85
2023-04-10T10:33:53.045Z,3.55
2023-04-10T10:36:23.940Z,3.38
2023-04-10T10:39:06.815Z,3.63
2023-04-10T10:41:45.011Z,5.13
2023-04-10T10:44:22.844Z,4.10
2023-04-10T10:47:02.872Z,3.67
2023-04-10T10:49:56.758Z,3.70
2023-04-10T10:52:45.494Z,3.45
2023-04-10T10:55:35.222Z,3.67
2023-04-10T10:58:06.580Z,3.40
2023-04-10T11:01:10.094Z,3.33
2023-04-10T11:03:41.858Z,3.50
2023-04-10T11:06:13.092Z,3.78
2023-04-10T11:08:46.312Z,3.00
2023-04-10T11:11:20.323Z,3.03
2023-04-10T11:14:18.160Z,3.05
2023-04-10T11:16:50.730Z,2.88
2023-04-10T11:19:23.682Z,3.03
2023-04-10T11:22:08.454Z,2.85
2023-04-10T11:24:59.002Z,2.92
2023-04-10T11:27:46.600Z,3.10
2023-04-10T11:30:36.618Z,3.20
2023-04-10T11:33:07.302Z,3.03
2023-04-10T11:35:38.397Z,3.05
2023-04-10T11:38:16.120Z,3.33
2023-04-10T11:41:02.464Z,2.72
2023-04-10T11:43:32.475Z,3.08
2023-04-10T11:46:07.728Z,3.38
2023-04-10T11:48:38.314Z,3.95
2023-04-10T11:51:14.275Z,3.30
2023-04-10T11:53:44.052Z,3.20
2023-04-10T11:56:22.208Z,3.20
2023-04-10T11:58:54.969Z,3.45
2023-04-10T12:01:25.120Z,3.10
2023-04-10T12:03:54.699Z,3.28
2023-04-10T12:06:25.878Z,2.75
2023-04-10T12:08:55.941Z,3.10
2023-04-10T12:11:26.965Z,3.13
2023-04-10T12:13:57.896Z,3.30
2023-04-10T12:16:27.928Z,2.90
2023-04-10T12:18:57.550Z,3.08
2023-04-10T12:21:28.645Z,4.28
2023-04-10T12:23:57.983Z,2.80
2023-04-10T12:26:27.320Z,3.28
2023-04-10T12:28:58.338Z,3.17
2023-04-10T12:31:32.325Z,3.00
2023-04-10T12:34:02.499Z,2.97
2023-04-10T12:36:35.506Z,2.92
2023-04-10T12:39:06.337Z,2.85
2023-04-10T12:41:36.886Z,2.60
2023-04-10T12:44:11.090Z,2.83
2023-04-10T12:46:41.279Z,2.72
2023-04-10T12:49:11.944Z,2.67
2023-04-10T12:51:47.118Z,2.90
2023-04-10T12:54:33.550Z,3.20
2023-04-10T12:57:04.331Z,2.85
2023-04-10T12:59:34.127Z,2.80
2023-04-10T13:02:03.663Z,2.75
2023-04-10T13:04:33.762Z,3.33
2023-04-10T13:07:04.762Z,3.70
2023-04-10T13:09:34.108Z,3.28
2023-04-10T13:12:04.355Z,2.83
2023-04-10T13:14:34.218Z,3.17
2023-04-10T13:17:03.619Z,3.65
2023-04-10T13:19:33.097Z,3.20
2023-04-10T13:22:05.153Z,2.70
2023-04-10T13:24:34.431Z,3.63
2023-04-10T13:27:03.767Z,3.30
2023-04-10T13:29:32.995Z,3.22
2023-04-10T13:32:04.224Z,2.88
2023-04-10T13:34:33.818Z,3.20
2023-04-10T13:37:04.802Z,3.55
2023-04-10T13:39:34.161Z,3.40
2023-04-10T13:42:03.483Z,4.00
2023-04-10T13:44:32.849Z,3.90
2023-04-10T13:47:02.159Z,3.90
2023-04-10T13:49:31.596Z,3.50
2023-04-10T13:52:01.007Z,3.87
2023-04-10T13:54:31.588Z,3.67
2023-04-10T13:57:01.005Z,3.90
2023-04-10T13:59:30.291Z,3.80
2023-04-10T14:01:59.620Z,4.57
2023-04-10T14:04:29.000Z,4.73
2023-04-10T14:07:00.712Z,3.93
2023-04-10T14:09:31.640Z,3.70
2023-04-10T14:12:01.911Z,4.30
2023-04-10T14:14:31.371Z,4.40
2023-04-10T14:17:00.809Z,4.73
2023-04-10T14:19:30.084Z,3.60
2023-04-10T14:21:59.986Z,3.53
2023-04-10T14:24:30.736Z,3.17
2023-04-10T14:27:01.677Z,3.72
2023-04-10T14:29:36.345Z,5.28
2023-04-10T14:32:10.191Z,3.95
2023-04-10T14:34:39.586Z,3.80
2023-04-10T14:37:08.847Z,4.05
2023-04-10T14:39:39.648Z,3.63
2023-04-10T14:42:09.347Z,3.63
2023-04-10T14:44:38.630Z,4.10
2023-04-10T14:47:08.312Z,4.35
2023-04-10T14:49:37.722Z,4.03
2023-04-10T14:52:06.934Z,4.72
2023-04-10T14:54:36.518Z,3.92
2023-04-10T14:57:07.492Z,10.27
2023-04-10T14:59:36.677Z,9.18
2023-04-10T15:02:06.107Z,5.43
2023-04-10T15:04:35.491Z,4.10
2023-04-10T15:07:05.264Z,3.22
2023-04-10T15:09:34.602Z,3.25
2023-04-10T15:12:03.898Z,3.90
2023-04-10T15:14:34.922Z,3.80
2023-04-10T15:17:04.506Z,4.15
2023-04-10T15:19:33.897Z,4.50
2023-04-10T15:22:03.215Z,3.75
2023-04-10T15:24:39.923Z,4.05
2023-04-10T15:27:12.772Z,3.70
2023-04-10T15:29:44.617Z,3.65
2023-04-10T15:32:13.966Z,3.22
2023-04-10T15:34:43.169Z,3.50
2023-04-10T15:37:12.920Z,3.63
2023-04-10T15:39:42.383Z,3.70
2023-04-10T15:42:11.746Z,3.90
2023-04-10T15:44:41.033Z,3.13
2023-04-10T15:47:11.832Z,3.80
2023-04-10T15:49:41.242Z,3.50
2023-04-10T15:52:10.599Z,3.35
2023-04-10T15:54:41.098Z,3.40
2023-04-10T15:57:10.823Z,3.10
2023-04-10T15:59:40.204Z,3.63
2023-04-10T16:02:11.530Z,3.72
2023-04-10T16:04:41.269Z,3.92
2023-04-10T16:07:10.740Z,3.67
2023-04-10T16:09:39.965Z,3.55
2023-04-10T16:12:09.552Z,3.80
2023-04-10T16:14:39.507Z,3.90
2023-04-10T16:17:08.966Z,3.30
2023-04-10T16:19:39.931Z,3.75
2023-04-10T16:22:09.408Z,4.43
2023-04-10T16:24:38.776Z,3.78
2023-04-10T16:27:08.943Z,3.92
2023-04-10T16:29:38.295Z,3.92
2023-04-10T16:32:07.833Z,4.53
2023-04-10T16:34:38.592Z,4.22
2023-04-10T16:37:08.172Z,4.43
2023-04-10T16:39:37.476Z,4.78
2023-04-10T16:42:06.992Z,4.88
2023-04-10T16:44:36.382Z,4.35
2023-04-10T16:47:05.905Z,4.90
2023-04-10T16:49:35.345Z,4.40
2023-04-10T16:52:06.221Z,4.85
2023-04-10T16:54:35.798Z,4.50
2023-04-10T16:57:05.974Z,4.63
2023-04-10T16:59:35.808Z,4.27
2023-04-10T17:02:06.266Z,4.37
2023-04-10T17:04:35.747Z,4.33
2023-04-10T17:07:06.677Z,3.87
2023-04-10T17:09:36.214Z,5.00
2023-04-10T17:12:06.127Z,4.33
2023-04-10T17:14:35.509Z,4.37
2023-04-10T17:17:05.082Z,4.40
2023-04-10T17:19:34.845Z,4.13
2023-04-10T17:22:06.323Z,4.60
2023-04-10T17:24:35.580Z,4.93
2023-04-10T17:27:04.930Z,5.17
2023-04-10T17:29:38.300Z,5.10
2023-04-10T17:32:08.496Z,5.27
2023-04-10T17:34:38.107Z,4.93
2023-04-10T17:37:08.780Z,5.30
2023-04-10T17:39:38.557Z,5.70
2023-04-10T17:42:08.434Z,5.97
2023-04-10T17:44:37.736Z,5.70
2023-04-10T17:47:07.652Z,5.70
2023-04-10T17:49:39.962Z,5.17
2023-04-10T17:52:11.524Z,5.97
2023-04-10T17:54:41.530Z,6.20
2023-04-10T17:57:10.917Z,5.73
2023-04-10T17:59:40.236Z,5.33
2023-04-10T18:02:09.920Z,5.27
2023-04-10T18:04:39.582Z,5.67
2023-04-10T18:07:10.236Z,5.47
2023-04-10T18:09:39.926Z,5.20
2023-04-10T18:12:11.026Z,5.20
2023-04-10T18:14:42.899Z,5.90
2023-04-10T18:17:13.023Z,5.60
2023-04-10T18:19:42.904Z,6.13
2023-04-10T18:22:14.064Z,5.63
2023-04-10T18:24:43.833Z,6.73
2023-04-10T18:27:13.337Z,6.37
2023-04-10T18:29:43.006Z,6.60
2023-04-10T18:32:12.370Z,6.90
2023-04-10T18:34:41.759Z,6.83
2023-04-10T18:37:15.910Z,7.17
2023-04-10T18:39:46.318Z,6.37
2023-04-10T18:42:16.326Z,7.20
2023-04-10T18:44:46.228Z,5.97
2023-04-10T18:47:15.984Z,6.23
2023-04-10T18:49:45.582Z,6.53
2023-04-10T18:52:16.701Z,6.60
2023-04-10T18:54:47.193Z,6.20
2023-04-10T18:57:17.100Z,6.60
2023-04-10T18:59:47.159Z,6.10
2023-04-10T19:02:17.921Z,5.40
2023-04-10T19:04:48.592Z,6.30
2023-04-10T19:07:20.316Z,6.17
2023-04-10T19:09:49.777Z,6.07
2023-04-10T19:12:19.779Z,6.70
2023-04-10T19:14:51.058Z,6.00
2023-04-10T19:17:22.036Z,6.97
2023-04-10T19:19:53.357Z,7.43
2023-04-10T19:22:24.701Z,6.83
2023-04-10T19:24:57.019Z,6.33
2023-04-10T19:27:28.664Z,6.73
2023-04-10T19:29:59.020Z,6.87
2023-04-10T19:32:29.392Z,7.70
2023-04-10T19:35:00.148Z,6.47
2023-04-10T19:37:32.842Z,8.43
2023-04-10T19:40:02.924Z,7.70
2023-04-10T19:42:34.257Z,7.10
2023-04-10T19:45:06.982Z,7.33
2023-04-10T19:47:36.962Z,7.93
2023-04-10T19:50:07.679Z,7.87
2023-04-10T19:52:39.785Z,7.90
2023-04-10T19:55:10.918Z,6.63
2023-04-10T19:57:41.601Z,7.40
2023-04-10T20:00:13.158Z,8.50
2023-04-10T20:02:43.228Z,9.00
2023-04-10T20:05:13.589Z,10.27
2023-04-10T20:07:45.255Z,13.43
2023-04-10T20:10:14.795Z,11.97
2023-04-10T20:12:44.425Z,10.50
2023-04-10T20:15:14.293Z,12.50
2023-04-10T20:17:44.072Z,10.87
2023-04-10T20:20:14.220Z,12.27
2023-04-10T20:22:45.688Z,14.13
2023-04-10T20:25:15.217Z,14.43
2023-04-10T20:27:44.671Z,11.77
2023-04-10T20:30:14.209Z,12.50
2023-04-10T20:32:43.534Z,12.17
2023-04-10T20:35:12.947Z,11.37
2023-04-10T20:37:42.452Z,11.03
2023-04-10T20:40:13.717Z,11.57
2023-04-10T20:42:45.176Z,11.70
2023-04-10T20:45:14.523Z,11.47
2023-04-10T20:47:43.918Z,12.37
2023-04-10T20:50:13.583Z,12.30
2023-04-10T20:52:42.870Z,12.23
2023-04-10T20:55:13.960Z,12.37
2023-04-10T20:57:43.162Z,12.90
2023-04-10T21:00:13.398Z,13.60
2023-04-10T21:02:42.770Z,14.83
2023-04-10T21:05:12.236Z,12.70
2023-04-10T21:07:41.471Z,14.17
2023-04-10T21:10:12.876Z,14.70
2023-04-10T21:12:42.301Z,12.07
2023-04-10T21:15:12.129Z,12.73
2023-04-10T21:17:41.530Z,12.27
2023-04-10T21:20:11.660Z,11.97
2023-04-10T21:22:40.966Z,11.97
2023-04-10T21:25:11.429Z,12.30
2023-04-10T21:27:42.699Z,13.50
2023-04-10T21:30:12.527Z,11.17
2023-04-10T21:32:41.855Z,12.27
2023-04-10T21:35:11.619Z,11.70
2023-04-10T21:37:40.949Z,10.10
2023-04-10T21:40:11.144Z,10.57
2023-04-10T21:42:42.075Z,10.83
2023-04-10T21:45:13.495Z,10.63
2023-04-10T21:47:42.811Z,11.70
2023-04-10T21:50:12.647Z,11.53
2023-04-10T21:52:41.871Z,14.23
2023-04-10T21:55:12.049Z,12.33
2023-04-10T21:57:42.957Z,12.43
2023-04-10T22:00:14.040Z,11.73
2023-04-10T22:02:43.439Z,13.00
2023-04-10T22:05:13.499Z,12.93
2023-04-10T22:07:42.847Z,13.43
2023-04-10T22:10:12.242Z,13.50
2023-04-10T22:12:43.175Z,13.43
2023-04-10T22:15:13.174Z,13.40
2023-04-10T22:17:42.487Z,13.20
2023-04-10T22:20:12.443Z,13.47
2023-04-10T22:22:41.873Z,12.73
2023-04-10T22:25:11.305Z,14.40
2023-04-10T22:27:40.680Z,13.23
2023-04-10T22:30:12.819Z,13.40
2023-04-10T22:32:42.438Z,12.90
2023-04-10T22:35:11.901Z,13.90
2023-04-10T22:37:41.174Z,13.20
2023-04-10T22:40:11.543Z,13.47
2023-04-10T22:42:41.330Z,13.47
2023-04-10T22:45:12.942Z,13.57
2023-04-10T22:47:42.210Z,15.53
2023-04-10T22:50:11.817Z,17.47
2023-04-10T22:52:41.247Z,16.40
2023-04-10T22:55:11.129Z,16.30
2023-04-10T22:57:40.437Z,16.33
2023-04-10T23:00:12.600Z,17.63
2023-04-10T23:02:41.935Z,18.70
2023-04-10T23:05:11.624Z,18.27
2023-04-10T23:07:40.984Z,18.17
2023-04-10T23:10:10.940Z,16.97
2023-04-10T23:12:40.300Z,17.27
2023-04-10T23:15:12.051Z,17.70
2023-04-10T23:17:41.327Z,20.00
2023-04-10T23:20:11.580Z,22.07
2023-04-10T23:22:40.783Z,20.80
2023-04-10T23:25:10.378Z,20.37
2023-04-10T23:27:40.339Z,18.80
2023-04-10T23:30:11.913Z,19.83
2023-04-10T23:32:41.229Z,18.87
2023-04-10T23:35:11.170Z,19.87
2023-04-10T23:37:40.445Z,20.27
2023-04-10T23:40:10.886Z,19.80
2023-04-10T23:42:40.280Z,20.77
2023-04-10T23:45:12.376Z,21.40
2023-04-10T23:47:41.771Z,21.73
2023-04-10T23:50:12.298Z,20.97
2023-04-10T23:52:41.518Z,20.80
2023-04-10T23:55:11.116Z,19.77
2023-04-10T23:57:40.449Z,18.97
